Time;durP1;ratioP1;P1;durP2;ratioP2;P2;SDS_P1;SDS_P2;PMS_P1;PMS_P2;Temp;Humidity;BMP_temperature;BMP_pressure;BME280_temperature;BME280_humidity;BME280_pressure;Samples;Min_cycle;Max_cycle;Signal;HPM_P1;HPM_P2
2022/06/28 00:01:01;;;;;;;2.07;1.47;;;;;;;17.09;100.00;98596.94;5036540;28;20292;-68
2022/06/28 00:03:27;;;;;;;2.40;1.57;;;;;;;17.09;100.00;98596.94;5036555;28;20206;-67
2022/06/28 00:05:54;;;;;;;2.83;1.40;;;;;;;17.09;100.00;98599.59;5036706;28;20246;-68
2022/06/28 00:08:20;;;;;;;1.30;1.20;;;;;;;17.10;100.00;98595.06;5036378;28;20264;-68
2022/06/28 00:10:47;;;;;;;1.67;1.47;;;;;;;17.14;100.00;98590.81;5036435;28;20639;-68
2022/06/28 00:13:13;;;;;;;1.40;1.30;;;;;;;17.08;100.00;98587.25;5036310;28;20298;-68
2022/06/28 00:18:23;;;;;;;1.50;1.13;;;;;;;17.09;100.00;98594.25;5036033;28;20263;-67
2022/06/28 00:20:50;;;;;;;1.50;1.27;;;;;;;17.15;100.00;98605.88;5036228;28;20213;-68
2022/06/28 00:23:16;;;;;;;2.47;1.57;;;;;;;17.15;100.00;98613.94;5035847;28;20553;-67
2022/06/28 00:25:43;;;;;;;2.10;1.20;;;;;;;17.17;100.00;98609.94;5036079;28;20584;-67
2022/06/28 00:28:09;;;;;;;1.10;1.10;;;;;;;17.17;100.00;98617.19;5036043;28;20316;-67
2022/06/28 00:30:36;;;;;;;1.30;1.20;;;;;;;17.14;100.00;98621.19;5036077;28;20308;-67
2022/06/28 00:33:02;;;;;;;1.43;1.33;;;;;;;17.10;100.00;98625.41;5035990;28;20212;-68
2022/06/28 00:35:28;;;;;;;1.77;1.40;;;;;;;17.12;100.00;98630.53;5035944;28;20214;-68
2022/06/28 00:37:55;;;;;;;1.40;1.30;;;;;;;17.11;100.00;98624.38;5035772;28;20292;-68
2022/06/28 00:40:21;;;;;;;1.47;1.37;;;;;;;17.10;100.00;98619.25;5035818;28;20210;-67
2022/06/28 00:42:48;;;;;;;2.07;1.40;;;;;;;17.10;100.00;98622.72;5035770;28;20221;-68
2022/06/28 00:45:15;;;;;;;2.37;1.30;;;;;;;17.17;100.00;98618.00;5035720;28;20218;-68
2022/06/28 00:47:42;;;;;;;1.77;1.20;;;;;;;17.11;100.00;98615.50;5035621;28;20292;-68
2022/06/28 00:50:09;;;;;;;1.60;1.43;;;;;;;17.12;100.00;98611.75;5035404;28;20232;-67
2022/06/28 00:53:04;;;;;;;2.07;1.30;;;;;;;17.15;100.00;98614.72;5035356;28;20687;-68
2022/06/28 00:55:30;;;;;;;2.90;0.90;;;;;;;17.27;100.00;98606.56;5035575;28;20264;-68
2022/06/28 00:57:57;;;;;;;1.50;1.40;;;;;;;17.19;100.00;98615.88;5035202;28;20217;-68
2022/06/28 01:00:24;;;;;;;1.93;1.40;;;;;;;17.18;100.00;98618.78;5035491;28;20292;-68
2022/06/28 01:02:50;;;;;;;3.43;1.30;;;;;;;17.08;100.00;98614.13;5035426;28;20209;-67
2022/06/28 01:05:17;;;;;;;1.27;1.17;;;;;;;17.06;100.00;98613.53;5034910;28;20719;-67
2022/06/28 01:07:43;;;;;;;1.93;1.37;;;;;;;17.01;100.00;98618.03;5034933;28;20748;-67
2022/06/28 01:10:10;;;;;;;1.53;1.43;;;;;;;16.99;100.00;98618.28;5034073;28;20691;-68
2022/06/28 01:12:37;;;;;;;2.43;1.13;;;;;;;17.07;100.00;98615.19;5035206;28;20209;-68
2022/06/28 01:15:04;;;;;;;3.20;1.20;;;;;;;17.01;100.00;98616.16;5035186;28;20233;-68
2022/06/28 01:17:30;;;;;;;1.37;1.20;;;;;;;17.06;100.00;98623.47;5035168;28;20327;-68
2022/06/28 01:19:56;;;;;;;1.87;0.90;;;;;;;17.11;100.00;98620.88;5034719;28;20319;-68
2022/06/28 01:22:23;;;;;;;1.47;1.37;;;;;;;17.03;100.00;98623.97;5035046;28;20214;-68
2022/06/28 01:24:50;;;;;;;2.93;1.20;;;;;;;16.93;100.00;98630.00;5034600;28;20202;-68
2022/06/28 01:27:17;;;;;;;1.53;1.20;;;;;;;16.94;100.00;98623.56;5034946;28;20272;-68
2022/06/28 01:29:44;;;;;;;1.30;1.20;;;;;;;16.86;100.00;98620.47;5034841;28;20268;-68
2022/06/28 01:32:10;;;;;;;3.03;1.40;;;;;;;16.84;100.00;98623.44;5034908;28;20300;-68
2022/06/28 01:34:37;;;;;;;1.67;1.00;;;;;;;16.83;100.00;98621.78;5034778;28;20296;-68
2022/06/28 01:37:10;;;;;;;1.97;1.20;;;;;;;16.85;100.00;98626.91;5034489;28;20201;-68
2022/06/28 01:39:38;;;;;;;5.43;1.10;;;;;;;16.85;100.00;98625.03;5034044;28;20570;-68
2022/06/28 01:42:05;;;;;;;2.93;1.23;;;;;;;16.82;100.00;98622.84;5034402;28;20675;-68
2022/06/28 01:44:32;;;;;;;2.07;1.20;;;;;;;16.86;100.00;98629.34;5034663;28;20202;-68
2022/06/28 01:47:00;;;;;;;3.23;1.23;;;;;;;16.94;100.00;98633.50;5034474;28;20325;-68
2022/06/28 01:49:26;;;;;;;1.93;1.40;;;;;;;16.98;100.00;98632.78;5034136;28;20324;-68
2022/06/28 01:51:52;;;;;;;1.23;1.10;;;;;;;16.97;100.00;98631.13;5034500;28;20208;-68
2022/06/28 01:54:19;;;;;;;1.43;1.40;;;;;;;16.96;100.00;98628.72;5034429;28;20209;-68
2022/06/28 01:56:45;;;;;;;1.83;1.10;;;;;;;17.00;100.00;98630.63;5034349;28;20285;-68
2022/06/28 01:59:12;;;;;;;2.27;1.30;;;;;;;17.01;100.00;98634.16;5034502;28;20234;-68
2022/06/28 02:01:39;;;;;;;2.53;1.30;;;;;;;17.00;100.00;98632.50;5034286;28;20220;-68
2022/06/28 02:04:22;;;;;;;2.60;1.20;;;;;;;16.91;100.00;98636.66;5033903;28;20296;-68
2022/06/28 02:06:49;;;;;;;2.67;1.20;;;;;;;16.85;100.00;98643.84;5034366;28;20237;-68
2022/06/28 02:09:16;;;;;;;3.60;1.20;;;;;;;16.84;100.00;98641.41;5034075;28;20317;-69
2022/06/28 02:11:43;;;;;;;2.10;1.30;;;;;;;16.80;100.00;98633.03;5034130;28;20233;-68
2022/06/28 02:14:10;;;;;;;2.80;1.30;;;;;;;16.75;100.00;98634.81;5034047;28;20214;-68
2022/06/28 02:16:37;;;;;;;1.47;1.20;;;;;;;16.68;100.00;98645.69;5033965;28;20208;-68
2022/06/28 02:19:04;;;;;;;1.27;1.17;;;;;;;16.68;100.00;98651.06;5033595;28;20668;-68
2022/06/28 02:21:39;;;;;;;1.50;1.30;;;;;;;16.69;100.00;98650.00;5033487;28;20208;-68
2022/06/28 02:24:07;;;;;;;2.63;1.10;;;;;;;16.71;100.00;98647.91;5033966;28;20190;-68
2022/06/28 02:26:33;;;;;;;3.20;1.20;;;;;;;16.57;100.00;98643.91;5016301;28;20233;-68
2022/06/28 02:29:01;;;;;;;1.43;1.10;;;;;;;16.57;100.00;98635.88;5033755;28;20226;-68
2022/06/28 02:31:28;;;;;;;2.60;1.20;;;;;;;16.49;100.00;98635.44;5033506;28;20246;-68
2022/06/28 02:33:55;;;;;;;1.30;1.20;;;;;;;16.50;100.00;98637.06;5033788;28;20214;-68
2022/06/28 02:41:50;;;;;;;1.57;1.20;;;;;;;16.50;100.00;98650.47;5032702;28;20205;-68
2022/06/28 02:44:17;;;;;;;1.27;1.20;;;;;;;16.41;100.00;98647.38;5033624;28;20206;-68
2022/06/28 02:46:44;;;;;;;3.83;1.30;;;;;;;16.37;100.00;98643.50;5033570;28;20221;-68
2022/06/28 02:49:11;;;;;;;1.93;1.40;;;;;;;16.37;100.00;98637.34;5033364;28;20240;-68
2022/06/28 02:51:37;;;;;;;1.97;1.20;;;;;;;16.33;100.00;98655.00;5033560;28;20206;-68
2022/06/28 02:54:04;;;;;;;1.57;1.47;;;;;;;16.24;100.00;98648.38;5033536;28;20210;-68
2022/06/28 02:56:30;;;;;;;2.27;1.60;;;;;;;16.16;100.00;98649.59;5033711;28;20288;-69
2022/06/28 02:58:57;;;;;;;3.20;1.50;;;;;;;16.14;100.00;98656.22;5033104;28;20588;-67
2022/06/28 03:01:23;;;;;;;1.97;1.40;;;;;;;16.17;100.00;98661.94;5033440;28;20206;-68
2022/06/28 03:03:49;;;;;;;2.80;1.47;;;;;;;16.16;100.00;98659.50;5033398;28;20210;-68
2022/06/28 03:06:16;;;;;;;1.33;1.23;;;;;;;16.17;100.00;98661.94;5033142;28;20308;-68
2022/06/28 03:08:42;;;;;;;4.90;1.67;;;;;;;16.20;100.00;98656.06;5032917;28;20587;-68
2022/06/28 03:11:09;;;;;;;1.40;1.30;;;;;;;16.13;100.00;98660.78;5033281;28;20212;-68
2022/06/28 03:13:35;;;;;;;2.27;1.50;;;;;;;16.16;100.00;98654.94;5033318;28;20300;-68
2022/06/28 03:16:01;;;;;;;1.63;1.50;;;;;;;16.14;100.00;98659.72;5032930;28;20644;-68
2022/06/28 03:18:28;;;;;;;1.50;1.40;;;;;;;16.10;100.00;98658.56;5033068;28;20221;-67
2022/06/28 03:20:54;;;;;;;2.57;1.30;;;;;;;16.12;100.00;98669.06;5033154;28;20301;-68
2022/06/28 03:23:21;;;;;;;1.20;1.20;;;;;;;16.09;100.00;98664.16;5033171;28;20206;-68
2022/06/28 03:25:47;;;;;;;1.43;1.33;;;;;;;16.07;100.00;98660.94;5033014;28;20225;-68
2022/06/28 03:28:14;;;;;;;1.70;1.60;;;;;;;16.09;100.00;98667.69;5032367;28;20784;-68
2022/06/28 03:30:40;;;;;;;2.67;1.60;;;;;;;16.12;100.00;98653.78;5032977;28;20216;-68
2022/06/28 03:33:06;;;;;;;1.93;1.70;;;;;;;16.15;100.00;98665.91;5035539;28;20605;-68
2022/06/28 03:35:33;;;;;;;2.10;1.63;;;;;;;16.23;100.00;98670.88;5036748;28;20198;-68
2022/06/28 03:37:59;;;;;;;2.30;1.80;;;;;;;16.20;100.00;98668.69;5036729;28;20321;-68
2022/06/28 03:40:25;;;;;;;3.50;1.60;;;;;;;16.25;100.00;98674.97;5036399;28;20202;-68
2022/06/28 03:42:52;;;;;;;1.60;1.50;;;;;;;16.28;100.00;98669.09;5036742;28;20385;-68
2022/06/28 03:45:18;;;;;;;3.80;1.90;;;;;;;16.31;100.00;98670.50;5036153;28;20311;-68
2022/06/28 03:47:45;;;;;;;1.80;1.57;;;;;;;16.41;100.00;98674.22;5035990;28;20683;-68
2022/06/28 03:50:11;;;;;;;1.93;1.60;;;;;;;16.42;100.00;98680.41;5036380;28;20304;-68
2022/06/28 03:52:37;;;;;;;2.73;1.90;;;;;;;16.40;100.00;98669.09;5036310;28;20206;-68
2022/06/28 03:55:06;;;;;;;1.80;1.70;;;;;;;16.43;100.00;98669.44;5036588;28;20210;-68
2022/06/28 03:57:32;;;;;;;1.77;1.67;;;;;;;16.40;100.00;98669.09;5036186;28;20202;-68
2022/06/28 04:00:01;;;;;;;2.00;1.90;;;;;;;16.42;100.00;98672.34;5036122;28;20230;-68
2022/06/28 04:02:27;;;;;;;4.13;1.90;;;;;;;16.49;100.00;98675.69;5036360;28;20619;-68
2022/06/28 04:04:54;;;;;;;3.33;1.93;;;;;;;16.44;100.00;98673.75;5035884;28;20564;-68
2022/06/28 04:07:20;;;;;;;1.70;1.60;;;;;;;16.45;100.00;98678.06;5036140;28;20257;-68
2022/06/28 04:09:46;;;;;;;1.97;1.60;;;;;;;16.43;100.00;98673.97;5035903;28;20232;-68
2022/06/28 04:12:13;;;;;;;4.50;1.77;;;;;;;16.37;100.00;98678.41;5036023;28;20308;-67
2022/06/28 04:14:40;;;;;;;2.20;1.60;;;;;;;16.38;100.00;98676.53;5035912;28;20669;-68
2022/06/28 04:17:06;;;;;;;1.70;1.60;;;;;;;16.40;100.00;98669.09;5036089;28;20206;-68
2022/06/28 04:19:33;;;;;;;1.93;1.83;;;;;;;16.42;100.00;98669.69;5035784;28;20254;-68
2022/06/28 04:21:59;;;;;;;2.57;1.77;;;;;;;16.50;100.00;98671.94;5036531;28;20247;-68
2022/06/28 04:24:26;;;;;;;5.00;1.90;;;;;;;16.48;100.00;98674.06;5035714;28;20279;-68
2022/06/28 04:26:52;;;;;;;4.73;2.00;;;;;;;16.47;100.00;98672.44;5035683;28;20247;-68
2022/06/28 04:29:19;;;;;;;4.50;1.90;;;;;;;16.44;100.00;98671.06;5035808;28;20313;-68
2022/06/28 04:31:45;;;;;;;2.60;2.00;;;;;;;16.45;100.00;98661.94;5035600;28;20209;-68
2022/06/28 04:34:12;;;;;;;4.43;1.67;;;;;;;16.53;100.00;98674.16;5035672;28;20296;-68
2022/06/28 04:36:38;;;;;;;3.10;2.43;;;;;;;16.60;100.00;98675.63;5035573;28;20202;-68
2022/06/28 04:39:05;;;;;;;3.70;2.70;;;;;;;16.56;100.00;98677.16;5035660;28;20226;-68
2022/06/28 04:41:31;;;;;;;3.60;2.30;;;;;;;16.64;100.00;98684.03;5035338;28;20214;-68
2022/06/28 04:43:58;;;;;;;2.87;2.47;;;;;;;16.62;100.00;98680.75;5034803;28;20342;-68
2022/06/28 04:46:24;;;;;;;2.60;2.13;;;;;;;16.66;100.00;98671.16;5034646;28;20320;-68
2022/06/28 04:48:51;;;;;;;3.00;2.70;;;;;;;16.53;100.00;98672.31;5034402;28;20715;-68
2022/06/28 04:51:17;;;;;;;3.20;2.50;;;;;;;16.63;100.00;98687.75;5035089;28;20229;-68
2022/06/28 04:53:47;;;;;;;3.00;2.70;;;;;;;16.64;100.00;98690.19;5035009;28;20661;-68
2022/06/28 04:56:14;;;;;;;3.30;2.60;;;;;;;16.66;100.00;98698.00;5034782;28;20229;-68
2022/06/28 04:58:41;;;;;;;4.60;2.60;;;;;;;16.65;100.00;98693.72;5035119;28;20226;-68
2022/06/28 05:01:07;;;;;;;4.50;2.93;;;;;;;16.73;100.00;98690.63;5035170;28;20209;-68
2022/06/28 05:03:34;;;;;;;3.67;2.93;;;;;;;16.75;100.00;98673.22;5034901;28;20205;-68
2022/06/28 05:06:00;;;;;;;4.53;4.10;;;;;;;16.85;100.00;98696.72;5034770;28;20304;-68
2022/06/28 05:08:26;;;;;;;4.50;3.90;;;;;;;16.83;100.00;98690.81;5034869;28;20235;-68
2022/06/28 05:10:53;;;;;;;7.57;4.43;;;;;;;16.91;100.00;98690.38;5034717;28;20213;-69
2022/06/28 05:13:19;;;;;;;5.57;5.07;;;;;;;16.95;100.00;98686.97;5034794;28;20301;-68
2022/06/28 05:15:46;;;;;;;5.70;5.20;;;;;;;16.81;100.00;98676.78;5034110;28;20274;-68
2022/06/28 05:18:12;;;;;;;7.27;6.53;;;;;;;17.00;100.00;98676.31;5034164;28;20249;-68
2022/06/28 05:20:38;;;;;;;5.67;5.00;;;;;;;17.11;100.00;98666.53;5034001;28;20665;-68
2022/06/28 05:23:05;;;;;;;7.17;5.40;;;;;;;17.07;100.00;98670.78;5034550;28;20296;-68
2022/06/28 05:25:31;;;;;;;7.63;5.73;;;;;;;16.90;100.00;98670.78;5034065;28;20208;-68
2022/06/28 05:27:58;;;;;;;6.57;6.03;;;;;;;16.81;100.00;98677.63;5034894;28;20384;-68
2022/06/28 05:30:24;;;;;;;6.17;5.67;;;;;;;16.85;100.00;98673.38;5034345;28;20660;-68
2022/06/28 05:32:50;;;;;;;6.30;5.77;;;;;;;16.83;100.00;98672.00;5034449;28;20288;-68
2022/06/28 05:35:17;;;;;;;6.93;6.33;;;;;;;16.85;100.00;98669.88;5033738;28;20303;-68
2022/06/28 05:37:43;;;;;;;8.20;6.67;;;;;;;16.94;100.00;98669.22;5034073;28;20297;-68
2022/06/28 05:40:10;;;;;;;7.17;5.90;;;;;;;16.93;100.00;98673.00;5033615;28;20225;-68
2022/06/28 05:42:37;;;;;;;6.60;6.00;;;;;;;16.87;100.00;98678.53;5033753;28;20564;-68
2022/06/28 05:45:03;;;;;;;8.53;6.17;;;;;;;17.03;100.00;98672.31;5034053;28;20297;-68
2022/06/28 05:47:30;;;;;;;7.10;6.23;;;;;;;17.18;100.00;98678.75;5033526;28;20291;-68
2022/06/28 05:49:57;;;;;;;8.30;6.63;;;;;;;17.17;100.00;98668.22;5033812;28;20233;-68
2022/06/28 05:52:23;;;;;;;7.43;6.77;;;;;;;17.06;100.00;98661.09;5033650;28;20725;-68
2022/06/28 05:54:50;;;;;;;9.37;6.43;;;;;;;17.17;100.00;98677.13;5033377;28;20301;-67
2022/06/28 05:57:17;;;;;;;6.80;6.20;;;;;;;17.22;100.00;98676.38;5033350;28;20292;-68
2022/06/28 05:59:43;;;;;;;6.70;5.97;;;;;;;17.28;100.00;98675.41;5033153;28;20799;-67
2022/06/28 06:02:09;;;;;;;6.90;6.00;;;;;;;17.28;100.00;98670.81;5033388;28;20691;-68
2022/06/28 06:04:36;;;;;;;7.23;6.50;;;;;;;17.41;100.00;98667.03;5033515;28;20744;-68
2022/06/28 06:07:02;;;;;;;7.50;6.30;;;;;;;17.41;100.00;98670.50;5033956;28;20225;-68
2022/06/28 06:09:29;;;;;;;7.03;6.33;;;;;;;17.55;100.00;98662.91;5032928;28;20808;-68
2022/06/28 06:11:55;;;;;;;6.80;6.30;;;;;;;17.65;100.00;98660.34;5033079;28;20202;-68
2022/06/28 06:14:22;;;;;;;6.23;5.83;;;;;;;17.69;100.00;98669.56;5033243;28;20316;-68
2022/06/28 06:16:50;;;;;;;8.87;6.40;;;;;;;17.33;100.00;98662.81;5033418;28;20256;-68
2022/06/28 06:19:17;;;;;;;6.97;6.37;;;;;;;17.50;100.00;98662.84;5033385;28;20321;-67
2022/06/28 06:21:44;;;;;;;5.97;5.57;;;;;;;17.63;100.00;98657.91;5033658;28;20210;-67
2022/06/28 06:24:11;;;;;;;6.90;6.37;;;;;;;17.68;100.00;98660.66;5033414;28;20225;-68
2022/06/28 06:26:37;;;;;;;5.70;5.17;;;;;;;17.85;100.00;98661.44;5032350;28;20740;-69
2022/06/28 06:29:04;;;;;;;5.87;5.37;;;;;;;17.71;100.00;98660.19;5033394;28;20324;-69
2022/06/28 06:31:30;;;;;;;6.67;6.10;;;;;;;17.68;100.00;98663.34;5033331;28;20210;-70
2022/06/28 06:33:57;;;;;;;5.80;5.30;;;;;;;17.76;99.41;98662.09;5032983;28;20202;-70
2022/06/28 06:36:23;;;;;;;5.63;4.90;;;;;;;17.96;97.49;98659.69;5032814;28;20292;-69
2022/06/28 06:38:50;;;;;;;5.90;5.27;;;;;;;17.88;100.00;98655.56;5033053;28;20225;-70
2022/06/28 06:41:16;;;;;;;6.77;5.10;;;;;;;17.86;99.20;98663.03;5033069;28;20206;-70
2022/06/28 06:43:43;;;;;;;8.03;5.53;;;;;;;17.94;99.25;98670.69;5032949;28;20293;-70
2022/06/28 06:46:09;;;;;;;5.83;5.33;;;;;;;17.76;98.09;98668.31;5032417;28;20661;-70
2022/06/28 06:48:36;;;;;;;5.63;5.13;;;;;;;17.70;99.94;98657.72;5032880;28;20280;-70
2022/06/28 06:51:02;;;;;;;7.73;5.67;;;;;;;17.81;100.00;98654.91;5033256;28;20220;-70
2022/06/28 06:53:29;;;;;;;6.23;5.10;;;;;;;17.94;100.00;98648.34;5032891;28;20309;-70
2022/06/28 06:56:00;;;;;;;6.50;5.37;;;;;;;18.09;99.95;98643.16;5032681;28;20205;-70
2022/06/28 06:58:26;;;;;;;5.93;5.33;;;;;;;17.96;95.71;98647.03;5032613;28;20217;-70
2022/06/28 07:00:53;;;;;;;5.73;5.20;;;;;;;17.96;97.93;98641.63;5032624;28;20292;-70
2022/06/28 07:03:19;;;;;;;6.17;5.67;;;;;;;17.94;97.76;98624.13;5032738;28;20292;-70
2022/06/28 07:05:46;;;;;;;6.00;5.50;;;;;;;18.04;99.37;98608.09;5032644;28;20303;-70
2022/06/28 07:08:12;;;;;;;5.90;5.40;;;;;;;17.92;98.18;98596.69;5034533;28;20664;-70
2022/06/28 07:10:39;;;;;;;5.57;5.00;;;;;;;18.12;97.88;98584.25;5036913;28;20202;-70
2022/06/28 07:13:05;;;;;;;6.80;5.40;;;;;;;18.07;98.36;98576.13;5036915;28;20202;-70
2022/06/28 07:15:32;;;;;;;6.50;5.73;;;;;;;17.91;99.58;98571.63;5036617;28;20300;-70
2022/06/28 07:17:59;;;;;;;6.43;5.80;;;;;;;17.69;99.90;98576.22;5036798;28;20637;-70
2022/06/28 07:20:25;;;;;;;6.47;5.87;;;;;;;17.81;99.43;98578.78;5036712;28;20217;-70
2022/06/28 07:22:51;;;;;;;5.83;5.10;;;;;;;17.78;100.00;98585.47;5036663;28;20213;-70
2022/06/28 07:25:18;;;;;;;6.67;6.10;;;;;;;17.65;100.00;98579.69;5037776;28;20210;-70
2022/06/28 07:27:44;;;;;;;6.40;5.60;;;;;;;17.74;100.00;98589.72;5036640;28;20230;-70
2022/06/28 07:30:12;;;;;;;7.10;5.97;;;;;;;17.86;99.92;98595.78;5036655;28;20232;-70
2022/06/28 07:32:38;;;;;;;6.70;6.20;;;;;;;17.84;100.00;98600.63;5036699;28;20297;-71
2022/06/28 07:35:05;;;;;;;6.70;6.07;;;;;;;17.78;100.00;98604.31;5036559;28;20209;-70
2022/06/28 07:37:32;;;;;;;6.73;6.00;;;;;;;17.80;100.00;98604.88;5036321;28;20649;-70
2022/06/28 07:39:59;;;;;;;6.47;5.87;;;;;;;17.89;100.00;98608.75;5036201;28;20709;-70
2022/06/28 07:42:25;;;;;;;6.13;5.73;;;;;;;17.95;100.00;98612.28;5036347;28;20293;-71
2022/06/28 07:44:52;;;;;;;6.67;6.07;;;;;;;18.08;98.49;98603.81;5036240;28;20206;-70
2022/06/28 07:47:18;;;;;;;5.57;5.07;;;;;;;18.15;99.74;98616.00;5036632;28;20317;-71
2022/06/28 07:52:35;;;;;;;6.00;5.40;;;;;;;18.58;97.15;98626.72;5036609;28;20177;-70
2022/06/28 07:55:03;;;;;;;5.83;5.40;;;;;;;18.63;96.18;98623.22;5035794;28;20198;-69
2022/06/28 07:57:29;;;;;;;5.57;5.10;;;;;;;18.72;94.70;98633.28;5035919;28;20206;-70
2022/06/28 07:59:56;;;;;;;5.30;4.90;;;;;;;18.72;90.20;98624.38;5036162;28;20258;-70
2022/06/28 08:02:23;;;;;;;5.53;5.03;;;;;;;19.06;91.23;98609.56;5036567;28;20645;-70
2022/06/28 08:04:50;;;;;;;5.57;5.07;;;;;;;19.06;89.58;98617.66;5035806;28;20691;-70
2022/06/28 08:07:16;;;;;;;5.20;4.70;;;;;;;18.94;87.28;98617.00;5036265;28;20230;-70
2022/06/28 08:09:42;;;;;;;4.90;4.60;;;;;;;19.09;89.65;98604.47;5035965;28;20236;-69
2022/06/28 08:12:09;;;;;;;5.07;4.67;;;;;;;19.31;87.44;98607.03;5036078;28;20212;-70
2022/06/28 08:14:36;;;;;;;4.63;4.33;;;;;;;18.93;86.73;98610.84;5035658;28;20296;-70
2022/06/28 08:17:03;;;;;;;4.93;4.40;;;;;;;19.22;87.89;98606.72;5035720;28;20665;-70
2022/06/28 08:19:30;;;;;;;4.70;4.20;;;;;;;19.34;87.64;98590.34;5035226;28;20230;-69
2022/06/28 08:21:56;;;;;;;5.00;4.60;;;;;;;19.18;85.21;98584.03;5035303;28;20216;-70
2022/06/28 08:24:23;;;;;;;7.27;4.30;;;;;;;19.04;88.70;98580.19;5035614;28;20205;-70
2022/06/28 08:26:49;;;;;;;4.40;4.10;;;;;;;19.33;86.86;98568.00;5035763;28;20225;-70
2022/06/28 08:29:17;;;;;;;5.00;4.60;;;;;;;19.57;84.17;98578.34;5035601;28;20248;-70
2022/06/28 08:31:44;;;;;;;4.33;4.00;;;;;;;19.54;84.87;98577.78;5035447;28;20217;-70
2022/06/28 08:34:12;;;;;;;4.40;4.00;;;;;;;19.60;86.98;98579.41;5035213;28;20591;-70
2022/06/28 08:36:38;;;;;;;3.83;3.53;;;;;;;20.00;81.96;98576.06;5035500;28;20208;-70
2022/06/28 08:39:06;;;;;;;4.07;3.77;;;;;;;19.95;79.28;98581.44;5035133;28;20671;-70
2022/06/28 08:41:35;;;;;;;4.67;3.53;;;;;;;19.98;79.01;98582.78;5035420;28;20240;-69
2022/06/28 08:44:02;;;;;;;4.90;3.03;;;;;;;20.34;79.54;98585.31;5035315;28;20293;-69
2022/06/28 08:46:30;;;;;;;3.37;3.17;;;;;;;20.83;80.02;98574.78;5035257;28;20213;-69
2022/06/28 08:49:04;;;;;;;4.23;3.13;;;;;;;20.96;79.01;98566.97;5034859;28;20234;-70
2022/06/28 08:51:33;;;;;;;2.90;2.60;;;;;;;20.92;78.45;98565.06;5035348;28;20209;-70
2022/06/28 08:54:01;;;;;;;4.23;2.50;;;;;;;21.07;78.89;98551.53;5035019;28;20288;-70
2022/06/28 08:56:28;;;;;;;3.17;2.97;;;;;;;20.84;76.66;98560.19;5035226;28;20267;-70
2022/06/28 08:58:58;;;;;;;3.33;2.73;;;;;;;20.86;76.93;98564.25;5034555;28;20222;-69
2022/06/28 09:01:25;;;;;;;3.33;2.73;;;;;;;21.05;77.07;98549.09;5034905;28;20680;-68
2022/06/28 09:03:53;;;;;;;3.27;2.53;;;;;;;21.27;75.27;98551.47;5034894;28;20308;-70
2022/06/28 09:06:20;;;;;;;3.00;2.67;;;;;;;21.52;74.59;98551.38;5035040;28;20296;-70
2022/06/28 09:08:46;;;;;;;3.00;2.30;;;;;;;21.39;74.14;98554.69;5034661;28;20240;-70
2022/06/28 09:11:13;;;;;;;2.43;2.23;;;;;;;21.32;72.24;98546.03;5034737;28;20208;-70
2022/06/28 09:13:42;;;;;;;2.77;2.50;;;;;;;21.26;72.67;98550.66;5034899;28;20212;-71
2022/06/28 09:16:08;;;;;;;5.03;2.80;;;;;;;21.49;71.76;98539.22;5034873;28;20201;-71
2022/06/28 09:18:35;;;;;;;2.57;2.10;;;;;;;21.50;70.73;98548.97;5034655;28;20644;-71
2022/06/28 09:21:03;;;;;;;2.60;2.40;;;;;;;21.15;69.95;98543.66;5034602;28;20767;-71
2022/06/28 09:23:32;;;;;;;3.07;2.30;;;;;;;20.92;74.38;98540.72;5034635;28;20301;-71
2022/06/28 09:26:08;;;;;;;2.50;2.30;;;;;;;20.81;77.06;98542.63;5034609;28;20297;-70
2022/06/28 09:28:39;;;;;;;3.53;2.60;;;;;;;20.81;75.02;98549.91;5034074;28;20325;-70
2022/06/28 09:31:32;;;;;;;5.97;2.33;;;;;;;20.51;74.58;98555.31;5034217;28;20194;-71
2022/06/28 09:34:01;;;;;;;2.73;2.53;;;;;;;20.89;75.15;98549.38;5031305;28;20244;-71
2022/06/28 09:36:30;;;;;;;3.50;2.30;;;;;;;20.85;71.86;98548.28;5034006;28;20205;-70
2022/06/28 09:38:57;;;;;;;2.77;2.20;;;;;;;20.83;74.88;98551.25;5033541;28;20705;-70
2022/06/28 09:41:28;;;;;;;3.70;3.00;;;;;;;20.90;74.20;98554.53;5033802;28;20206;-70
2022/06/28 09:44:03;;;;;;;2.90;2.27;;;;;;;20.91;73.35;98558.84;5034221;28;20387;-70
2022/06/28 09:46:31;;;;;;;3.27;2.43;;;;;;;21.19;75.03;98552.03;5033871;28;20564;-70
2022/06/28 09:49:04;;;;;;;3.33;2.17;;;;;;;21.31;76.18;98553.38;5033783;28;20226;-70
2022/06/28 09:51:32;;;;;;;3.10;2.40;;;;;;;21.38;72.75;98561.19;5034310;28;20193;-70
2022/06/28 09:54:03;;;;;;;2.87;1.90;;;;;;;21.64;69.79;98546.44;5034177;28;20240;-70
2022/06/28 09:56:34;;;;;;;2.57;2.03;;;;;;;21.04;73.36;98542.06;5034108;28;20576;-71
2022/06/28 09:59:01;;;;;;;2.30;2.10;;;;;;;21.39;72.58;98549.28;5034096;28;20240;-70
2022/06/28 10:01:27;;;;;;;2.30;2.10;;;;;;;21.67;70.61;98535.91;5033887;28;20213;-71
2022/06/28 10:03:54;;;;;;;4.33;2.10;;;;;;;21.53;70.66;98544.88;5033942;28;20290;-70
2022/06/28 10:06:21;;;;;;;2.57;1.83;;;;;;;21.19;69.76;98550.13;5033719;28;20205;-70
2022/06/28 10:08:49;;;;;;;2.57;2.07;;;;;;;21.13;70.96;98539.63;5032982;28;20230;-72
2022/06/28 10:11:17;;;;;;;2.53;2.27;;;;;;;21.23;70.30;98529.56;5033386;28;20297;-71
2022/06/28 10:16:40;;;;;;;3.10;1.90;;;;;;;21.91;68.07;98520.63;5033619;28;20185;-71
2022/06/28 10:19:08;;;;;;;2.27;2.07;;;;;;;20.90;67.50;98519.41;5033406;28;20217;-71
2022/06/28 10:21:53;;;;;;;2.60;1.80;;;;;;;21.06;68.32;98515.56;5033599;28;20301;-71
2022/06/28 10:24:21;;;;;;;2.93;1.80;;;;;;;21.24;69.38;98503.31;5033620;28;20300;-71
2022/06/28 10:27:13;;;;;;;2.37;1.97;;;;;;;21.10;68.19;98507.69;5033734;28;20208;-71
2022/06/28 10:29:58;;;;;;;2.10;1.90;;;;;;;21.70;69.08;98507.50;5033242;28;20226;-71
2022/06/28 10:32:50;;;;;;;2.07;1.70;;;;;;;21.78;66.95;98504.19;5033278;28;20213;-71
2022/06/28 10:35:34;;;;;;;1.87;1.77;;;;;;;21.52;66.43;98502.69;5032983;28;20205;-71
2022/06/28 10:38:10;;;;;;;1.97;1.87;;;;;;;21.45;68.31;98500.28;5033269;28;20225;-71
2022/06/28 10:40:49;;;;;;;2.90;1.70;;;;;;;21.76;67.19;98493.66;5032817;28;20215;-71
2022/06/28 10:43:36;;;;;;;3.30;1.70;;;;;;;22.00;64.39;98502.69;5033128;28;20190;-71
2022/06/28 10:46:09;;;;;;;1.73;1.63;;;;;;;22.01;65.57;98488.06;5032861;28;20644;-71
2022/06/28 10:48:50;;;;;;;1.83;1.67;;;;;;;22.27;63.35;98481.38;5032893;28;20408;-71
2022/06/28 10:51:18;;;;;;;1.47;1.37;;;;;;;22.46;63.27;98476.06;5032986;28;20193;-71
2022/06/28 10:53:59;;;;;;;1.60;1.50;;;;;;;22.50;63.81;98464.41;5033142;28;20300;-71
2022/06/28 10:56:26;;;;;;;3.03;1.50;;;;;;;22.47;64.04;98466.88;5033485;28;20241;-71
2022/06/28 10:58:56;;;;;;;3.65;1.65;;;;;;;22.10;65.84;98456.59;5032680;28;20550;-71
2022/06/28 11:01:41;;;;;;;4.40;1.63;;;;;;;22.31;62.99;98451.81;5033325;28;20205;-71
2022/06/28 11:04:25;;;;;;;1.73;1.63;;;;;;;22.29;63.13;98443.16;5033134;28;20227;-71
2022/06/28 11:06:54;;;;;;;2.75;1.33;;;;;;;22.47;64.39;98440.56;5032973;28;20281;-72
2022/06/28 11:09:33;;;;;;;1.95;1.60;;;;;;;22.44;63.13;98426.75;5032680;28;20312;-71
2022/06/28 11:12:05;;;;;;;1.98;1.73;;;;;;;22.64;63.79;98432.00;5032625;28;20242;-71
2022/06/28 11:14:45;;;;;;;2.13;1.40;;;;;;;22.83;62.47;98433.69;5032594;28;20216;-71
2022/06/28 11:17:26;;;;;;;2.53;1.20;;;;;;;22.71;63.65;98437.91;5032257;28;20189;-71
2022/06/28 11:19:55;;;;;;;1.35;1.20;;;;;;;22.83;61.99;98425.56;5032458;28;20320;-71
2022/06/28 11:22:30;;;;;;;2.00;1.38;;;;;;;22.69;62.17;98412.97;5032952;28;20397;-71
2022/06/28 11:25:00;;;;;;;2.15;1.30;;;;;;;22.82;63.94;98412.28;5032880;28;20192;-71
2022/06/28 11:27:26;;;;;;;1.48;1.30;;;;;;;22.88;60.05;98422.00;5032910;28;20300;-71
2022/06/28 11:30:06;;;;;;;1.83;1.13;;;;;;;22.99;59.76;98408.03;5032489;28;20233;-71
2022/06/28 11:32:43;;;;;;;1.20;1.10;;;;;;;23.05;58.25;98409.56;5032774;28;20204;-71
2022/06/28 11:35:14;;;;;;;1.13;1.10;;;;;;;23.20;58.44;98411.31;5032618;28;20288;-71
2022/06/28 11:37:49;;;;;;;1.60;1.20;;;;;;;23.12;58.94;98401.91;5032138;28;20638;-71
2022/06/28 11:40:17;;;;;;;1.23;1.13;;;;;;;23.29;56.59;98399.50;5032009;28;20206;-70
2022/06/28 11:42:44;;;;;;;1.30;1.20;;;;;;;23.09;58.15;98407.88;5014214;28;20210;-71
2022/06/28 11:45:13;;;;;;;1.38;1.27;;;;;;;23.25;57.87;98412.03;5031192;28;20202;-71
2022/06/28 11:47:46;;;;;;;1.27;1.17;;;;;;;23.12;59.58;98406.50;5032675;28;20238;-69